Time;durP1;ratioP1;P1;durP2;ratioP2;P2;SDS_P1;SDS_P2;PMS_P1;PMS_P2;Temp;Humidity;BMP_temperature;BMP_pressure;BME280_temperature;BME280_humidity;BME280_pressure;Samples;Min_cycle;Max_cycle;Signal;HPM_P1;HPM_P2
2023/09/28 00:01:12;;;;;;;18.60;13.80;;;;;;;11.99;100.00;97131.09;5074332;28;20206;-61
2023/09/28 00:03:45;;;;;;;15.73;14.13;;;;;;;11.99;100.00;97126.56;5065239;28;20195;-62
2023/09/28 00:06:12;;;;;;;14.37;13.13;;;;;;;12.06;100.00;97124.00;5069677;28;20784;-61
2023/09/28 00:08:40;;;;;;;13.30;12.10;;;;;;;12.10;100.00;97129.72;5056095;28;20401;-63
2023/09/28 00:11:07;;;;;;;15.03;13.63;;;;;;;12.11;100.00;97129.53;5030074;28;20214;-62
2023/09/28 00:13:37;;;;;;;15.17;13.67;;;;;;;12.11;100.00;97134.84;5055959;28;20237;-62
2023/09/28 00:16:04;;;;;;;16.70;14.43;;;;;;;12.14;100.00;97133.66;4997657;28;20340;-63
2023/09/28 00:18:32;;;;;;;15.43;14.03;;;;;;;12.16;100.00;97145.72;5076716;28;20908;-61
2023/09/28 00:20:59;;;;;;;15.40;13.90;;;;;;;12.17;100.00;97143.91;5067859;28;20300;-60
2023/09/28 00:23:26;;;;;;;14.63;13.30;;;;;;;12.22;100.00;97143.28;5075476;28;20194;-58
2023/09/28 00:25:53;;;;;;;14.97;13.67;;;;;;;12.31;100.00;97147.41;5078399;28;20198;-59
2023/09/28 00:28:21;;;;;;;15.67;14.17;;;;;;;12.37;100.00;97148.47;5083798;28;20219;-60
2023/09/28 00:30:49;;;;;;;15.07;13.77;;;;;;;12.43;100.00;97148.53;5023867;28;20237;-62
2023/09/28 00:33:16;;;;;;;16.63;15.13;;;;;;;12.49;100.00;97157.53;5076068;28;20429;-61
2023/09/28 00:35:43;;;;;;;14.30;12.90;;;;;;;12.53;100.00;97156.16;5069539;28;20230;-59
2023/09/28 00:38:11;;;;;;;14.27;13.07;;;;;;;12.52;100.00;97154.50;5076646;28;20242;-62
2023/09/28 00:40:39;;;;;;;13.93;12.63;;;;;;;12.56;100.00;97157.56;5070892;28;20206;-62
2023/09/28 00:43:07;;;;;;;13.93;12.73;;;;;;;12.59;100.00;97149.19;5073839;28;20205;-59
2023/09/28 00:45:34;;;;;;;12.73;11.73;;;;;;;12.54;100.00;97147.16;4963196;28;20210;-59
2023/09/28 00:48:06;;;;;;;12.90;12.00;;;;;;;12.55;100.00;97148.78;5075584;28;20252;-60
2023/09/28 00:50:33;;;;;;;12.40;11.30;;;;;;;12.54;100.00;97143.66;5070786;28;20195;-59
2023/09/28 00:53:02;;;;;;;12.17;11.20;;;;;;;12.54;100.00;97143.66;5074102;28;20237;-62
2023/09/28 00:55:29;;;;;;;13.23;12.13;;;;;;;12.55;100.00;97137.34;5070108;28;20202;-59
2023/09/28 00:58:00;;;;;;;12.10;11.10;;;;;;;12.45;100.00;97138.53;5072790;28;20762;-62
2023/09/28 01:00:28;;;;;;;12.17;11.27;;;;;;;12.39;100.00;97143.78;5022785;28;20207;-59
2023/09/28 01:02:57;;;;;;;11.60;10.70;;;;;;;12.32;100.00;97145.59;5070713;28;20677;-60
2023/09/28 01:05:31;;;;;;;11.03;10.23;;;;;;;12.33;100.00;97145.41;5073675;28;20205;-61
2023/09/28 01:08:07;;;;;;;11.50;10.70;;;;;;;12.30;100.00;97153.75;5078611;28;20248;-59
2023/09/28 01:10:36;;;;;;;12.17;11.27;;;;;;;12.27;100.00;97141.69;5073131;28;20206;-60
2023/09/28 01:13:06;;;;;;;11.07;10.30;;;;;;;12.33;100.00;97147.25;5075206;28;20289;-59
2023/09/28 01:15:35;;;;;;;12.67;11.57;;;;;;;12.32;100.00;97149.09;5074655;28;20285;-61
2023/09/28 01:18:03;;;;;;;11.97;10.97;;;;;;;12.31;100.00;97152.72;5077574;28;20452;-59
2023/09/28 01:20:35;;;;;;;12.57;11.57;;;;;;;12.27;100.00;97160.28;4972449;28;20214;-62
2023/09/28 01:23:04;;;;;;;12.20;11.20;;;;;;;12.30;100.00;97157.25;5073305;28;20198;-59
2023/09/28 01:25:32;;;;;;;12.50;11.50;;;;;;;12.24;100.00;97173.97;5075745;28;20198;-61
2023/09/28 01:27:59;;;;;;;12.90;11.90;;;;;;;12.20;100.00;97180.69;5074202;28;20214;-59
2023/09/28 01:30:27;;;;;;;12.93;11.80;;;;;;;12.18;100.00;97174.75;5022336;28;20222;-64
2023/09/28 01:32:54;;;;;;;12.93;11.93;;;;;;;12.19;100.00;97175.56;5072080;28;20202;-61
2023/09/28 01:35:21;;;;;;;12.13;11.13;;;;;;;12.19;100.00;97183.53;5067337;28;21129;-62
2023/09/28 01:37:55;;;;;;;13.37;12.23;;;;;;;12.24;100.00;97178.44;5072654;28;20221;-59
2023/09/28 01:40:24;;;;;;;12.10;11.17;;;;;;;12.28;100.00;97177.03;5070776;28;20581;-61
2023/09/28 01:42:51;;;;;;;12.47;11.47;;;;;;;12.30;100.00;97172.34;5073550;28;20230;-58
2023/09/28 01:45:18;;;;;;;16.60;13.23;;;;;;;12.29;100.00;97166.22;5070764;28;20271;-59
2023/09/28 01:47:45;;;;;;;12.50;11.50;;;;;;;12.12;100.00;97165.72;5077541;28;20767;-59
2023/09/28 01:50:13;;;;;;;12.40;11.27;;;;;;;12.15;100.00;97156.56;5073373;28;20218;-59
2023/09/28 01:52:39;;;;;;;12.53;11.63;;;;;;;12.18;100.00;97160.63;5074161;28;20315;-60
2023/09/28 01:55:08;;;;;;;13.13;12.03;;;;;;;12.23;100.00;97163.53;4963428;28;20210;-58
2023/09/28 01:57:36;;;;;;;13.23;12.13;;;;;;;12.21;100.00;97155.75;5071832;28;20309;-57
2023/09/28 02:00:08;;;;;;;13.83;12.70;;;;;;;12.26;100.00;97155.16;5068554;28;20293;-60
2023/09/28 02:02:36;;;;;;;12.63;11.63;;;;;;;12.25;100.00;97161.50;5075511;28;20206;-60
2023/09/28 02:05:06;;;;;;;13.67;12.57;;;;;;;12.31;100.00;97163.34;5025295;28;20263;-59
2023/09/28 02:07:34;;;;;;;13.03;12.03;;;;;;;12.35;100.00;97159.31;5070231;28;20226;-60
2023/09/28 02:10:03;;;;;;;12.23;11.33;;;;;;;12.31;100.00;97158.03;5073342;28;20202;-61
2023/09/28 02:12:30;;;;;;;11.67;10.87;;;;;;;12.30;100.00;97164.38;5075851;28;20284;-60
2023/09/28 02:15:01;;;;;;;12.77;11.87;;;;;;;12.35;100.00;97156.66;5074194;28;20726;-59
2023/09/28 02:17:28;;;;;;;13.07;11.73;;;;;;;12.36;100.00;97149.50;5069068;28;20357;-59
2023/09/28 02:19:56;;;;;;;13.00;12.10;;;;;;;12.40;100.00;97145.44;5071666;28;20222;-60
2023/09/28 02:22:23;;;;;;;14.10;12.90;;;;;;;12.41;100.00;97155.88;5065591;28;20739;-60
2023/09/28 02:24:51;;;;;;;13.83;12.83;;;;;;;12.42;100.00;97157.50;5070266;28;20221;-58
2023/09/28 02:27:17;;;;;;;13.77;12.40;;;;;;;12.45;100.00;97150.97;5075982;28;20214;-59
2023/09/28 02:29:46;;;;;;;13.73;12.63;;;;;;;12.43;100.00;97159.16;4964597;28;20245;-62
2023/09/28 02:32:14;;;;;;;14.13;13.03;;;;;;;12.41;100.00;97158.53;5074089;28;20202;-61
2023/09/28 02:34:42;;;;;;;14.20;12.93;;;;;;;12.36;100.00;97152.16;5022008;28;20206;-64
2023/09/28 02:37:08;;;;;;;14.57;13.30;;;;;;;12.45;100.00;97156.28;5071042;28;20909;-57
2023/09/28 02:39:36;;;;;;;14.33;13.23;;;;;;;12.45;100.00;97153.63;5066428;28;20837;-63
2023/09/28 02:42:07;;;;;;;14.43;13.30;;;;;;;12.41;100.00;97149.72;5071141;28;20206;-60
2023/09/28 02:44:35;;;;;;;14.23;13.23;;;;;;;12.37;100.00;97146.66;5074002;28;20657;-61
2023/09/28 02:47:05;;;;;;;13.67;12.57;;;;;;;12.33;100.00;97160.53;5074242;28;20317;-60
2023/09/28 02:49:33;;;;;;;14.10;13.07;;;;;;;12.35;100.00;97150.53;5070532;28;20290;-59
2023/09/28 02:52:02;;;;;;;13.40;12.37;;;;;;;12.33;100.00;97156.03;5080349;28;20252;-61
2023/09/28 02:54:29;;;;;;;13.47;12.47;;;;;;;12.36;100.00;97154.81;5070346;28;20255;-61
2023/09/28 02:56:57;;;;;;;12.60;11.70;;;;;;;12.33;100.00;97168.50;5075856;28;20244;-61
2023/09/28 02:59:24;;;;;;;12.60;11.60;;;;;;;12.12;100.00;97173.69;4970514;28;20914;-59
2023/09/28 03:01:52;;;;;;;12.60;11.67;;;;;;;12.09;100.00;97176.72;5077926;28;20291;-55
2023/09/28 03:04:19;;;;;;;12.97;12.07;;;;;;;12.02;100.00;97173.22;5070603;28;20358;-60
2023/09/28 03:06:52;;;;;;;13.20;12.30;;;;;;;12.07;100.00;97183.22;5074308;28;20202;-58
2023/09/28 03:09:19;;;;;;;12.93;12.03;;;;;;;12.11;100.00;97177.34;5015060;28;20922;-60
2023/09/28 03:11:47;;;;;;;12.33;11.43;;;;;;;11.99;100.00;97179.69;5009671;28;20517;-58
2023/09/28 03:14:14;;;;;;;13.33;12.33;;;;;;;12.03;100.00;97182.81;5073560;28;20231;-59
2023/09/28 03:16:42;;;;;;;13.93;12.57;;;;;;;12.03;100.00;97172.19;5070909;28;20762;-59
2023/09/28 03:19:10;;;;;;;11.97;11.10;;;;;;;12.02;100.00;97179.31;5075088;28;20218;-57
2023/09/28 03:21:39;;;;;;;12.37;11.47;;;;;;;11.97;100.00;97179.06;5068087;28;20211;-59
2023/09/28 03:24:08;;;;;;;12.53;11.63;;;;;;;12.01;100.00;97185.66;5073287;28;20631;-60
2023/09/28 03:26:36;;;;;;;12.73;11.47;;;;;;;12.02;100.00;97183.84;5064573;28;20301;-59
2023/09/28 03:29:03;;;;;;;11.23;10.43;;;;;;;11.94;100.00;97187.41;5073944;28;20222;-60
2023/09/28 03:31:32;;;;;;;11.03;10.33;;;;;;;11.99;100.00;97194.81;4993924;28;21126;-62
2023/09/28 03:34:01;;;;;;;11.57;10.77;;;;;;;11.94;100.00;97190.06;5060748;28;20217;-57
2023/09/28 03:36:30;;;;;;;11.30;10.50;;;;;;;12.00;100.00;97191.13;5066854;28;20268;-59
2023/09/28 03:38:58;;;;;;;10.77;9.87;;;;;;;12.07;100.00;97186.72;5075396;28;20218;-57
2023/09/28 03:41:28;;;;;;;10.70;9.93;;;;;;;12.01;100.00;97179.53;5031632;28;20783;-60
2023/09/28 03:43:55;;;;;;;10.20;9.50;;;;;;;11.98;100.00;97178.03;5061703;28;20563;-60
2023/09/28 03:46:23;;;;;;;9.83;9.23;;;;;;;11.88;100.00;97173.06;4994286;28;20249;-57
2023/09/28 03:48:51;;;;;;;11.33;10.57;;;;;;;11.86;100.00;97163.66;5065201;28;20314;-60
2023/09/28 03:51:19;;;;;;;14.10;11.37;;;;;;;11.69;100.00;97179.84;5062968;28;20282;-60
2023/09/28 03:53:46;;;;;;;11.43;10.63;;;;;;;11.67;100.00;97176.56;5074294;28;20268;-60
2023/09/28 03:56:14;;;;;;;11.77;10.93;;;;;;;11.68;100.00;97178.22;5069769;28;20297;-60
2023/09/28 03:58:44;;;;;;;11.20;10.37;;;;;;;11.57;100.00;97190.19;5073917;28;20226;-60
2023/09/28 04:01:11;;;;;;;12.03;11.03;;;;;;;11.45;100.00;97194.31;5065518;28;20312;-58
2023/09/28 04:03:41;;;;;;;10.80;10.07;;;;;;;11.46;100.00;97193.31;5070882;28;20794;-60
2023/09/28 04:06:09;;;;;;;10.40;9.70;;;;;;;11.60;100.00;97204.06;4961292;28;20211;-60
2023/09/28 04:08:37;;;;;;;11.33;10.53;;;;;;;11.42;100.00;97205.31;5063633;28;20854;-60
2023/09/28 04:11:05;;;;;;;12.00;11.03;;;;;;;11.53;100.00;97193.38;5071035;28;20207;-61
2023/09/28 04:13:33;;;;;;;12.67;11.57;;;;;;;11.49;100.00;97203.56;5073392;28;20194;-59
2023/09/28 04:16:02;;;;;;;14.07;12.90;;;;;;;11.52;100.00;97202.38;5003910;28;20791;-60
2023/09/28 04:18:30;;;;;;;13.73;12.63;;;;;;;11.50;100.00;97199.88;5067863;28;20231;-58
2023/09/28 04:20:57;;;;;;;19.77;13.37;;;;;;;11.39;100.00;97208.34;5070872;28;20300;-57
2023/09/28 04:23:25;;;;;;;14.47;13.27;;;;;;;11.32;100.00;97202.97;5064619;28;20590;-60
2023/09/28 04:25:52;;;;;;;14.77;13.23;;;;;;;11.34;100.00;97216.88;5071245;28;20217;-57
2023/09/28 04:28:20;;;;;;;15.57;13.90;;;;;;;11.42;100.00;97207.97;5069749;28;20221;-59
2023/09/28 04:30:48;;;;;;;18.00;14.40;;;;;;;11.17;100.00;97208.31;5070842;28;20190;-58
2023/09/28 04:33:17;;;;;;;13.20;12.10;;;;;;;11.20;100.00;97207.97;5010453;28;20215;-56
2023/09/28 04:35:46;;;;;;;13.53;12.33;;;;;;;11.06;100.00;97200.84;5074803;28;20207;-60
2023/09/28 04:38:14;;;;;;;13.80;12.67;;;;;;;11.20;100.00;97215.94;4964655;28;20230;-59
2023/09/28 04:40:42;;;;;;;12.37;11.43;;;;;;;11.22;100.00;97218.38;5076423;28;20655;-60
2023/09/28 04:43:10;;;;;;;13.13;12.03;;;;;;;11.22;100.00;97215.72;5072246;28;20297;-60
2023/09/28 04:45:38;;;;;;;13.33;12.33;;;;;;;11.13;100.00;97212.34;5077125;28;20205;-59
2023/09/28 04:48:06;;;;;;;13.50;12.50;;;;;;;11.26;100.00;97215.16;5022035;28;20230;-59
2023/09/28 04:50:37;;;;;;;12.27;11.37;;;;;;;11.07;100.00;97215.75;5073938;28;20194;-58
2023/09/28 04:53:04;;;;;;;13.63;12.53;;;;;;;11.05;100.00;97229.22;5070489;28;20262;-61
2023/09/28 04:55:32;;;;;;;12.43;11.53;;;;;;;11.04;100.00;97227.56;5074095;28;20285;-59
2023/09/28 04:58:00;;;;;;;14.50;13.20;;;;;;;10.93;100.00;97223.56;5071281;28;20782;-59
2023/09/28 05:00:28;;;;;;;12.97;11.87;;;;;;;11.04;100.00;97226.72;5076220;28;20667;-59
2023/09/28 05:02:56;;;;;;;13.50;12.37;;;;;;;11.04;100.00;97224.91;5072732;28;20198;-61
2023/09/28 05:05:24;;;;;;;12.70;11.80;;;;;;;11.11;100.00;97219.66;5077597;28;20231;-58
2023/09/28 05:07:53;;;;;;;11.40;10.50;;;;;;;11.00;100.00;97226.31;4972989;28;20915;-57
2023/09/28 05:10:21;;;;;;;13.07;12.07;;;;;;;11.08;100.00;97228.84;5080301;28;20317;-59
2023/09/28 05:12:49;;;;;;;10.80;10.00;;;;;;;11.15;100.00;97224.44;5076096;28;20215;-59
2023/09/28 05:15:16;;;;;;;11.10;10.20;;;;;;;10.90;100.00;97239.84;5017167;28;20269;-60
2023/09/28 05:17:44;;;;;;;14.60;13.40;;;;;;;11.05;100.00;97229.22;5074402;28;20623;-57
2023/09/28 05:20:12;;;;;;;11.97;11.00;;;;;;;11.08;100.00;97238.59;5077952;28;20722;-57
2023/09/28 05:22:40;;;;;;;11.57;10.67;;;;;;;11.03;100.00;97220.63;5073101;28;20206;-61
2023/09/28 05:25:09;;;;;;;10.93;10.13;;;;;;;11.01;100.00;97241.19;5075697;28;20205;-59
2023/09/28 05:27:37;;;;;;;11.07;10.17;;;;;;;11.03;100.00;97243.66;5082254;28;20304;-59
2023/09/28 05:30:06;;;;;;;11.37;10.43;;;;;;;11.13;100.00;97245.00;5088665;28;20263;-60
2023/09/28 05:32:33;;;;;;;11.60;10.70;;;;;;;11.18;100.00;97241.81;5083421;28;20501;-59
2023/09/28 05:35:02;;;;;;;12.83;11.73;;;;;;;11.17;100.00;97232.19;5073110;28;20194;-59
2023/09/28 05:37:30;;;;;;;10.83;9.93;;;;;;;11.19;100.00;97235.50;5074956;28;20230;-59
2023/09/28 05:39:58;;;;;;;11.20;10.30;;;;;;;11.23;100.00;97239.41;4965232;28;20427;-60
2023/09/28 05:42:27;;;;;;;9.77;9.07;;;;;;;11.05;100.00;97247.78;5082301;28;20206;-59
2023/09/28 05:44:55;;;;;;;13.53;10.30;;;;;;;10.90;100.00;97255.75;5072656;28;20206;-60
2023/09/28 05:47:22;;;;;;;11.57;10.57;;;;;;;11.06;100.00;97261.84;5079873;28;20221;-57
2023/09/28 05:49:52;;;;;;;10.87;10.07;;;;;;;11.09;100.00;97264.13;5076060;28;20609;-58
2023/09/28 05:52:20;;;;;;;11.00;10.07;;;;;;;11.11;100.00;97265.59;5082690;28;20288;-60
2023/09/28 05:54:49;;;;;;;14.03;12.93;;;;;;;11.29;100.00;97273.16;5070774;28;20475;-59
2023/09/28 05:57:17;;;;;;;12.63;11.47;;;;;;;11.27;100.00;97272.50;5077783;28;20272;-58
2023/09/28 05:59:46;;;;;;;12.60;11.70;;;;;;;11.32;100.00;97256.03;5074333;28;20574;-59
2023/09/28 06:02:14;;;;;;;12.63;11.60;;;;;;;11.38;100.00;97257.94;5077063;28;20502;-57
2023/09/28 06:04:42;;;;;;;11.83;10.87;;;;;;;11.48;100.00;97265.59;5078828;28;20732;-60
2023/09/28 06:07:10;;;;;;;11.50;10.60;;;;;;;11.52;100.00;97264.19;5076806;28;20782;-58
2023/09/28 06:09:39;;;;;;;10.93;10.13;;;;;;;11.61;100.00;97274.72;5007973;28;21470;-61
2023/09/28 06:12:07;;;;;;;10.90;10.20;;;;;;;11.77;100.00;97274.47;5050127;28;20198;-60
2023/09/28 06:14:35;;;;;;;10.33;9.37;;;;;;;11.66;100.00;97267.81;5073386;28;20568;-61
2023/09/28 06:17:04;;;;;;;10.30;9.37;;;;;;;11.87;100.00;97282.91;5075509;28;20248;-59
2023/09/28 06:19:32;;;;;;;10.70;9.90;;;;;;;12.01;100.00;97277.78;5075415;28;20233;-58
2023/09/28 06:22:14;;;;;;;11.90;10.90;;;;;;;11.99;100.00;97277.13;5073301;28;20789;-60
2023/09/28 06:24:42;;;;;;;10.10;9.40;;;;;;;12.16;100.00;97273.19;5067903;28;20250;-60
2023/09/28 06:27:10;;;;;;;11.67;10.87;;;;;;;11.95;100.00;97274.00;5076721;28;20267;-61
2023/09/28 06:29:38;;;;;;;12.07;11.17;;;;;;;12.20;100.00;97283.44;5073438;28;20240;-61
2023/09/28 06:32:07;;;;;;;11.17;10.37;;;;;;;12.28;100.00;97281.47;5074774;28;20203;-60
2023/09/28 06:34:34;;;;;;;12.57;11.47;;;;;;;12.24;100.00;97287.34;5068447;28;20498;-60
2023/09/28 06:37:02;;;;;;;12.37;11.47;;;;;;;12.06;100.00;97283.34;5077841;28;20249;-60
2023/09/28 06:39:30;;;;;;;13.70;12.10;;;;;;;11.91;100.00;97271.91;5076509;28;20198;-61
2023/09/28 06:41:57;;;;;;;12.67;11.67;;;;;;;12.33;100.00;97286.22;5072117;28;20329;-56
2023/09/28 06:44:46;;;;;;;13.63;12.30;;;;;;;12.33;100.00;97269.44;4993179;28;20883;-61
2023/09/28 06:47:15;;;;;;;14.70;13.13;;;;;;;12.32;100.00;97281.94;5062206;28;20318;-60
2023/09/28 06:49:43;;;;;;;17.73;13.30;;;;;;;12.37;100.00;97282.16;5070430;28;20300;-60
2023/09/28 06:52:11;;;;;;;13.10;11.87;;;;;;;12.22;100.00;97284.91;5077527;28;20230;-59
2023/09/28 06:54:39;;;;;;;13.83;12.63;;;;;;;12.40;100.00;97288.91;5075487;28;20198;-59
2023/09/28 06:57:07;;;;;;;13.23;12.17;;;;;;;12.58;100.00;97294.56;5075779;28;20836;-58
2023/09/28 06:59:35;;;;;;;13.87;12.50;;;;;;;12.83;100.00;97287.97;5072828;28;20288;-61
2023/09/28 07:02:04;;;;;;;14.67;13.57;;;;;;;12.87;100.00;97284.72;5077939;28;20321;-58
2023/09/28 07:04:34;;;;;;;14.07;12.93;;;;;;;12.80;100.00;97293.69;5073664;28;20291;-59
2023/09/28 07:07:01;;;;;;;14.70;13.20;;;;;;;12.70;100.00;97294.88;5074242;28;20199;-60
2023/09/28 07:09:29;;;;;;;13.60;12.50;;;;;;;13.03;100.00;97288.09;5078331;28;20843;-59
2023/09/28 07:12:04;;;;;;;14.37;13.10;;;;;;;13.18;100.00;97290.59;5074875;28;20288;-59
2023/09/28 07:14:33;;;;;;;14.63;13.43;;;;;;;13.25;100.00;97287.97;5020684;28;20271;-60
2023/09/28 07:17:01;;;;;;;13.73;12.63;;;;;;;13.40;100.00;97290.47;5031824;28;20263;-60
2023/09/28 07:19:28;;;;;;;16.10;14.70;;;;;;;13.70;100.00;97280.38;5075710;28;20234;-60
2023/09/28 07:21:57;;;;;;;15.20;13.70;;;;;;;13.85;100.00;97276.69;5078592;28;20317;-61
2023/09/28 07:24:26;;;;;;;15.43;14.17;;;;;;;13.71;100.00;97275.84;5070344;28;20202;-61
2023/09/28 07:26:53;;;;;;;15.50;14.10;;;;;;;13.88;100.00;97285.13;5069573;28;20299;-61
2023/09/28 07:29:21;;;;;;;15.70;14.40;;;;;;;13.81;100.00;97292.25;5075516;28;20294;-62
2023/09/28 07:31:49;;;;;;;14.63;13.37;;;;;;;13.73;100.00;97301.28;5069602;28;20204;-61
2023/09/28 07:34:17;;;;;;;15.53;14.17;;;;;;;13.89;100.00;97299.25;5074119;28;20270;-61
2023/09/28 07:36:45;;;;;;;16.47;14.77;;;;;;;13.78;100.00;97313.97;5061381;28;20336;-62
2023/09/28 07:39:14;;;;;;;17.20;15.50;;;;;;;14.10;100.00;97322.22;5081468;28;20210;-61
2023/09/28 07:41:43;;;;;;;22.70;17.37;;;;;;;14.21;100.00;97317.34;5070176;28;20221;-60
2023/09/28 07:44:11;;;;;;;20.63;17.53;;;;;;;14.12;100.00;97319.38;5058653;28;20213;-61
2023/09/28 07:46:41;;;;;;;21.53;18.37;;;;;;;13.95;100.00;97326.91;4987473;28;20212;-61
2023/09/28 07:49:09;;;;;;;21.77;19.07;;;;;;;14.06;100.00;97325.50;5077095;28;20309;-61
2023/09/28 07:51:37;;;;;;;26.60;20.17;;;;;;;14.17;100.00;97327.56;5065803;28;20204;-60
2023/09/28 07:54:04;;;;;;;26.83;21.17;;;;;;;14.46;100.00;97328.19;5080138;28;20225;-60
2023/09/28 07:56:34;;;;;;;25.40;21.63;;;;;;;14.50;100.00;97325.94;5073824;28;20794;-61
2023/09/28 07:59:02;;;;;;;28.47;20.63;;;;;;;14.51;100.00;97327.56;5078504;28;20310;-61
2023/09/28 08:01:29;;;;;;;25.03;20.63;;;;;;;14.47;100.00;97330.66;5077612;28;20237;-61
2023/09/28 08:03:57;;;;;;;24.00;19.67;;;;;;;14.68;100.00;97331.47;5082077;28;20857;-61
2023/09/28 08:06:25;;;;;;;24.13;21.33;;;;;;;14.71;100.00;97328.41;5069415;28;20202;-60
2023/09/28 08:08:58;;;;;;;23.00;20.60;;;;;;;14.92;100.00;97331.06;5078497;28;20227;-57
2023/09/28 08:11:26;;;;;;;22.13;19.83;;;;;;;14.79;100.00;97338.06;5067768;28;20290;-57
2023/09/28 08:13:55;;;;;;;23.63;20.33;;;;;;;15.07;100.00;97344.16;5072879;28;20201;-61
2023/09/28 08:16:23;;;;;;;26.60;20.47;;;;;;;15.11;100.00;97348.03;5071734;28;20230;-56
2023/09/28 08:18:51;;;;;;;27.10;21.20;;;;;;;14.94;100.00;97353.00;5075248;28;20272;-58
2023/09/28 08:21:18;;;;;;;25.03;22.03;;;;;;;14.82;100.00;97360.81;4968654;28;20290;-61
2023/09/28 08:23:46;;;;;;;26.00;23.17;;;;;;;14.95;100.00;97359.97;5060906;28;20199;-60
2023/09/28 08:26:15;;;;;;;27.07;23.47;;;;;;;14.89;100.00;97354.44;5067147;28;20202;-58
2023/09/28 08:28:43;;;;;;;25.33;22.73;;;;;;;15.03;100.00;97354.41;5063762;28;20218;-58
2023/09/28 08:31:12;;;;;;;25.77;22.97;;;;;;;14.83;100.00;97344.63;5067569;28;20969;-59
2023/09/28 08:33:40;;;;;;;25.27;22.67;;;;;;;15.01;100.00;97351.13;5065332;28;20573;-60
2023/09/28 08:36:08;;;;;;;25.10;22.50;;;;;;;15.20;100.00;97341.44;5071831;28;20249;-59
2023/09/28 08:38:37;;;;;;;25.93;23.13;;;;;;;15.16;100.00;97341.06;5077463;28;20226;-60
2023/09/28 08:41:07;;;;;;;25.20;22.57;;;;;;;15.36;100.00;97336.69;5067511;28;20679;-62
2023/09/28 08:43:44;;;;;;;26.03;22.30;;;;;;;15.48;100.00;97335.81;5065097;28;20214;-62
2023/09/28 08:46:15;;;;;;;30.40;25.13;;;;;;;15.54;100.00;97336.81;5070001;28;20564;-57
2023/09/28 08:48:45;;;;;;;26.17;22.83;;;;;;;15.22;100.00;97347.41;5075029;28;20226;-62
2023/09/28 08:51:13;;;;;;;27.37;24.07;;;;;;;15.01;100.00;97341.31;5064222;28;20294;-60
2023/09/28 08:53:43;;;;;;;28.97;25.87;;;;;;;15.19;100.00;97335.31;5066960;28;20591;-61
2023/09/28 08:56:11;;;;;;;28.83;25.87;;;;;;;15.18;100.00;97332.84;4968828;28;20206;-58
2023/09/28 08:58:41;;;;;;;29.30;26.13;;;;;;;15.53;100.00;97337.00;5069476;28;20744;-60
2023/09/28 09:01:09;;;;;;;27.60;24.53;;;;;;;15.46;100.00;97332.53;5058146;28;20893;-61
2023/09/28 09:03:40;;;;;;;24.47;21.87;;;;;;;15.66;100.00;97333.47;5073637;28;20222;-62
2023/09/28 09:06:10;;;;;;;26.23;23.17;;;;;;;16.17;100.00;97326.41;5054427;28;20258;-61
2023/09/28 09:08:39;;;;;;;26.33;23.57;;;;;;;15.66;100.00;97320.13;5075023;28;20218;-62
2023/09/28 09:11:10;;;;;;;22.93;20.67;;;;;;;15.97;100.00;97326.56;5070169;28;20824;-61
2023/09/28 09:13:48;;;;;;;24.43;21.93;;;;;;;16.12;100.00;97316.41;5065047;28;20218;-61
2023/09/28 09:16:16;;;;;;;27.30;24.43;;;;;;;15.63;100.00;97324.03;5071399;28;20681;-59
2023/09/28 09:18:48;;;;;;;25.70;22.93;;;;;;;15.85;100.00;97319.19;5073665;28;20268;-57
2023/09/28 09:21:16;;;;;;;26.37;23.57;;;;;;;15.89;100.00;97325.78;5068475;28;20214;-61
2023/09/28 09:23:44;;;;;;;24.57;21.97;;;;;;;15.86;100.00;97315.50;5072267;28;20291;-56
2023/09/28 09:26:17;;;;;;;25.60;22.90;;;;;;;15.89;100.00;97317.75;4972267;28;20236;-60
2023/09/28 09:28:46;;;;;;;24.63;22.17;;;;;;;15.88;100.00;97321.47;5074643;28;20279;-60
2023/09/28 09:31:15;;;;;;;24.47;21.90;;;;;;;16.15;100.00;97320.47;5074864;28;20412;-58
2023/09/28 09:33:45;;;;;;;26.23;22.83;;;;;;;16.75;100.00;97316.50;5076301;28;20742;-56
2023/09/28 09:36:16;;;;;;;26.43;23.73;;;;;;;16.79;100.00;97315.00;5072865;28;20203;-59
2023/09/28 09:38:44;;;;;;;26.20;23.03;;;;;;;16.38;100.00;97314.53;5073688;28;20876;-60
2023/09/28 09:41:12;;;;;;;26.80;24.00;;;;;;;16.47;100.00;97317.75;5063145;28;20299;-61
2023/09/28 09:43:41;;;;;;;27.17;24.37;;;;;;;16.67;100.00;97316.75;5075002;28;20780;-61
2023/09/28 09:46:10;;;;;;;29.93;26.63;;;;;;;16.59;100.00;97315.19;5074298;28;20682;-60
2023/09/28 09:48:40;;;;;;;28.20;25.20;;;;;;;16.91;100.00;97301.72;5062365;28;20234;-60
2023/09/28 09:51:11;;;;;;;27.70;22.87;;;;;;;17.07;100.00;97297.69;5069217;28;20249;-59
2023/09/28 09:53:40;;;;;;;28.57;24.77;;;;;;;17.27;100.00;97293.94;5074768;28;20202;-61
2023/09/28 09:56:08;;;;;;;27.13;23.53;;;;;;;17.14;100.00;97286.88;5068851;28;20203;-60
2023/09/28 09:58:39;;;;;;;26.00;23.40;;;;;;;16.96;100.00;97287.66;4966392;28;20230;-61
2023/09/28 10:01:11;;;;;;;26.03;23.40;;;;;;;16.70;100.00;97292.28;5077209;28;20305;-61
2023/09/28 10:03:40;;;;;;;25.17;22.27;;;;;;;16.87;100.00;97293.31;5070742;28;20236;-59
2023/09/28 10:06:09;;;;;;;23.47;21.13;;;;;;;17.05;100.00;97299.75;5061516;28;20588;-58
2023/09/28 10:08:38;;;;;;;23.17;20.77;;;;;;;17.29;100.00;97297.22;5075124;28;20222;-60
2023/09/28 10:11:05;;;;;;;23.43;21.33;;;;;;;17.22;100.00;97297.28;5078257;28;21780;-61
2023/09/28 10:13:34;;;;;;;23.63;21.30;;;;;;;17.38;100.00;97293.19;5075446;28;20218;-60
2023/09/28 10:16:03;;;;;;;22.53;20.30;;;;;;;17.55;100.00;97296.06;5068656;28;20299;-60
2023/09/28 10:18:31;;;;;;;23.20;21.07;;;;;;;17.74;100.00;97296.03;5069987;28;20218;-58
2023/09/28 10:21:00;;;;;;;22.43;20.23;;;;;;;17.58;100.00;97292.13;5064607;28;20207;-60
2023/09/28 10:23:31;;;;;;;22.20;20.13;;;;;;;17.70;100.00;97290.28;5061946;28;20214;-61
2023/09/28 10:26:00;;;;;;;22.90;20.57;;;;;;;17.73;100.00;97284.47;5076361;28;20281;-57
2023/09/28 10:28:27;;;;;;;22.10;19.90;;;;;;;18.04;100.00;97276.47;4966389;28;20221;-60
2023/09/28 10:31:03;;;;;;;21.80;19.63;;;;;;;18.16;100.00;97274.63;5070294;28;20217;-61
2023/09/28 10:33:31;;;;;;;22.43;20.27;;;;;;;18.21;100.00;97282.78;5075434;28;20208;-60
2023/09/28 10:36:14;;;;;;;21.67;19.53;;;;;;;18.36;100.00;97282.34;5078128;28;20198;-57
2023/09/28 10:38:46;;;;;;;21.77;19.67;;;;;;;18.61;100.00;97286.66;5059076;28;20248;-59
2023/09/28 10:41:14;;;;;;;20.23;18.30;;;;;;;18.59;100.00;97280.72;5070011;28;20205;-60
2023/09/28 10:43:43;;;;;;;19.63;17.73;;;;;;;18.73;100.00;97275.91;5073336;28;20245;-59
2023/09/28 10:46:11;;;;;;;20.13;18.07;;;;;;;18.87;100.00;97279.16;5070210;28;20214;-58
2023/09/28 10:48:40;;;;;;;17.97;16.13;;;;;;;19.17;100.00;97283.59;5063217;28;20227;-61
2023/09/28 10:51:12;;;;;;;18.83;17.03;;;;;;;19.22;100.00;97274.84;5071870;28;20201;-60
2023/09/28 10:53:40;;;;;;;20.67;17.17;;;;;;;19.18;100.00;97279.84;5077566;28;20693;-60
2023/09/28 10:56:10;;;;;;;19.53;16.80;;;;;;;19.32;100.00;97276.88;5073883;28;20207;-59
2023/09/28 10:58:39;;;;;;;20.00;15.83;;;;;;;19.38;100.00;97279.44;4965037;28;20229;-60
2023/09/28 11:01:07;;;;;;;17.00;15.53;;;;;;;19.49;100.00;97279.63;5076810;28;20573;-60
2023/09/28 11:03:36;;;;;;;19.30;17.43;;;;;;;19.59;100.00;97276.34;5076431;28;20218;-60
2023/09/28 11:06:05;;;;;;;18.53;16.73;;;;;;;19.74;100.00;97265.06;5073712;28;20467;-61
2023/09/28 11:08:33;;;;;;;14.73;13.40;;;;;;;19.76;100.00;97266.47;5074177;28;20232;-62
2023/09/28 11:11:03;;;;;;;15.00;13.60;;;;;;;19.92;100.00;97266.75;5076497;28;20604;-62
2023/09/28 11:13:32;;;;;;;15.43;13.70;;;;;;;19.91;100.00;97263.25;5073971;28;20225;-57
2023/09/28 11:16:00;;;;;;;13.40;12.20;;;;;;;20.07;100.00;97252.75;5074824;28;20201;-59